sensor_id;sensor_type;location;lat;lon;timestamp;temperature;humidity
48488;DHT22;34289;48.572;13.378;2023-08-20T00:01:06;19.30;99.90
48488;DHT22;34289;48.572;13.378;2023-08-20T00:03:34;19.10;99.90
48488;DHT22;34289;48.572;13.378;2023-08-20T00:06:00;18.80;99.90
48488;DHT22;34289;48.572;13.378;2023-08-20T00:08:25;18.80;99.90
48488;DHT22;34289;48.572;13.378;2023-08-20T00:10:51;18.70;99.90
48488;DHT22;34289;48.572;13.378;2023-08-20T00:13:17;18.70;99.90
48488;DHT22;34289;48.572;13.378;2023-08-20T00:15:42;18.70;99.90
48488;DHT22;34289;48.572;13.378;2023-08-20T00:18:09;18.90;99.90
48488;DHT22;34289;48.572;13.378;2023-08-20T00:20:35;19.00;99.90
48488;DHT22;34289;48.572;13.378;2023-08-20T00:23:01;18.90;99.90
48488;DHT22;34289;48.572;13.378;2023-08-20T00:25:27;19.00;99.90
48488;DHT22;34289;48.572;13.378;2023-08-20T00:27:52;19.10;99.90
48488;DHT22;34289;48.572;13.378;2023-08-20T00:30:18;19.00;99.90
48488;DHT22;34289;48.572;13.378;2023-08-20T00:32:44;18.90;99.90
48488;DHT22;34289;48.572;13.378;2023-08-20T00:35:09;18.70;99.90
48488;DHT22;34289;48.572;13.378;2023-08-20T00:37:35;18.60;99.90
48488;DHT22;34289;48.572;13.378;2023-08-20T00:40:01;18.60;99.90
48488;DHT22;34289;48.572;13.378;2023-08-20T00:42:30;18.40;99.90
48488;DHT22;34289;48.572;13.378;2023-08-20T00:44:55;18.50;99.90
48488;DHT22;34289;48.572;13.378;2023-08-20T00:47:21;18.50;99.90
48488;DHT22;34289;48.572;13.378;2023-08-20T00:49:48;18.40;99.90
48488;DHT22;34289;48.572;13.378;2023-08-20T00:52:14;18.50;99.90
48488;DHT22;34289;48.572;13.378;2023-08-20T00:54:41;18.40;99.90
48488;DHT22;34289;48.572;13.378;2023-08-20T00:57:09;18.30;99.90
48488;DHT22;34289;48.572;13.378;2023-08-20T00:59:34;18.40;99.90
48488;DHT22;34289;48.572;13.378;2023-08-20T01:02:00;18.60;99.90
48488;DHT22;34289;48.572;13.378;2023-08-20T01:04:27;18.70;99.90
48488;DHT22;34289;48.572;13.378;2023-08-20T01:10:04;18.90;99.90
48488;DHT22;34289;48.572;13.378;2023-08-20T01:12:34;18.60;99.90
48488;DHT22;34289;48.572;13.378;2023-08-20T01:15:00;18.60;99.90
48488;DHT22;34289;48.572;13.378;2023-08-20T01:17:25;18.60;99.90
48488;DHT22;34289;48.572;13.378;2023-08-20T01:19:51;18.60;99.90
48488;DHT22;34289;48.572;13.378;2023-08-20T01:25:55;18.70;99.90
48488;DHT22;34289;48.572;13.378;2023-08-20T01:28:30;18.80;99.90
48488;DHT22;34289;48.572;13.378;2023-08-20T01:30:58;18.70;99.90
48488;DHT22;34289;48.572;13.378;2023-08-20T01:33:24;18.70;99.90
48488;DHT22;34289;48.572;13.378;2023-08-20T01:35:54;18.50;99.90
48488;DHT22;34289;48.572;13.378;2023-08-20T01:38:20;18.20;99.90
48488;DHT22;34289;48.572;13.378;2023-08-20T01:40:47;18.00;99.90
48488;DHT22;34289;48.572;13.378;2023-08-20T01:43:12;18.10;99.90
48488;DHT22;34289;48.572;13.378;2023-08-20T01:45:38;18.10;99.90
48488;DHT22;34289;48.572;13.378;2023-08-20T01:48:04;18.10;99.90
48488;DHT22;34289;48.572;13.378;2023-08-20T01:50:30;18.10;99.90
48488;DHT22;34289;48.572;13.378;2023-08-20T01:52:56;18.30;99.90
48488;DHT22;34289;48.572;13.378;2023-08-20T01:55:22;18.30;99.90
48488;DHT22;34289;48.572;13.378;2023-08-20T01:57:47;18.30;99.90
48488;DHT22;34289;48.572;13.378;2023-08-20T02:00:13;18.40;99.90
48488;DHT22;34289;48.572;13.378;2023-08-20T02:02:39;18.50;99.90
48488;DHT22;34289;48.572;13.378;2023-08-20T02:05:05;18.20;99.90
48488;DHT22;34289;48.572;13.378;2023-08-20T02:07:31;18.10;99.90
48488;DHT22;34289;48.572;13.378;2023-08-20T02:09:56;18.20;99.90
48488;DHT22;34289;48.572;13.378;2023-08-20T02:12:22;18.10;99.90
48488;DHT22;34289;48.572;13.378;2023-08-20T02:14:47;18.00;99.90
48488;DHT22;34289;48.572;13.378;2023-08-20T02:17:13;18.10;99.90
48488;DHT22;34289;48.572;13.378;2023-08-20T02:19:39;18.00;99.90
48488;DHT22;34289;48.572;13.378;2023-08-20T02:22:05;18.00;99.90
48488;DHT22;34289;48.572;13.378;2023-08-20T02:24:30;17.90;99.90
48488;DHT22;34289;48.572;13.378;2023-08-20T02:26:56;17.80;99.90
48488;DHT22;34289;48.572;13.378;2023-08-20T02:29:22;17.80;99.90
48488;DHT22;34289;48.572;13.378;2023-08-20T02:31:48;17.90;99.90
48488;DHT22;34289;48.572;13.378;2023-08-20T02:34:13;18.00;99.90
48488;DHT22;34289;48.572;13.378;2023-08-20T02:36:39;18.20;99.90
48488;DHT22;34289;48.572;13.378;2023-08-20T02:39:05;18.30;99.90
48488;DHT22;34289;48.572;13.378;2023-08-20T02:41:36;18.40;99.90
48488;DHT22;34289;48.572;13.378;2023-08-20T02:44:02;18.30;99.90
48488;DHT22;34289;48.572;13.378;2023-08-20T02:46:29;17.90;99.90
48488;DHT22;34289;48.572;13.378;2023-08-20T03:01:05;18.10;99.90
48488;DHT22;34289;48.572;13.378;2023-08-20T03:59:33;17.50;99.90
48488;DHT22;34289;48.572;13.378;2023-08-20T05:27:14;19.00;99.90
48488;DHT22;34289;48.572;13.378;2023-08-20T05:32:06;19.10;99.90
48488;DHT22;34289;48.572;13.378;2023-08-20T05:41:52;20.00;99.90
48488;DHT22;34289;48.572;13.378;2023-08-20T06:15:55;29.80;99.90
48488;DHT22;34289;48.572;13.378;2023-08-20T06:18:21;28.50;99.90
48488;DHT22;34289;48.572;13.378;2023-08-20T06:20:46;27.90;99.90
48488;DHT22;34289;48.572;13.378;2023-08-20T06:23:12;28.20;99.90
48488;DHT22;34289;48.572;13.378;2023-08-20T06:25:38;27.50;99.90
48488;DHT22;34289;48.572;13.378;2023-08-20T06:28:04;26.90;99.90
48488;DHT22;34289;48.572;13.378;2023-08-20T06:30:30;26.20;99.90
48488;DHT22;34289;48.572;13.378;2023-08-20T06:32:55;26.00;99.90
48488;DHT22;34289;48.572;13.378;2023-08-20T06:35:21;25.80;99.90
48488;DHT22;34289;48.572;13.378;2023-08-20T06:37:46;25.50;99.90
48488;DHT22;34289;48.572;13.378;2023-08-20T06:40:12;25.40;99.90
48488;DHT22;34289;48.572;13.378;2023-08-20T06:42:39;25.30;99.90
48488;DHT22;34289;48.572;13.378;2023-08-20T06:45:05;25.00;99.90
48488;DHT22;34289;48.572;13.378;2023-08-20T06:47:31;24.70;99.90
48488;DHT22;34289;48.572;13.378;2023-08-20T06:49:56;24.60;99.90
48488;DHT22;34289;48.572;13.378;2023-08-20T06:52:22;24.80;99.90
48488;DHT22;34289;48.572;13.378;2023-08-20T06:54:47;25.00;99.90
48488;DHT22;34289;48.572;13.378;2023-08-20T06:57:13;25.20;99.90
48488;DHT22;34289;48.572;13.378;2023-08-20T06:59:39;25.30;99.90
48488;DHT22;34289;48.572;13.378;2023-08-20T07:02:04;25.00;99.90
48488;DHT22;34289;48.572;13.378;2023-08-20T07:04:30;24.80;99.90
48488;DHT22;34289;48.572;13.378;2023-08-20T07:06:56;25.00;99.90
48488;DHT22;34289;48.572;13.378;2023-08-20T07:09:21;25.20;99.90
48488;DHT22;34289;48.572;13.378;2023-08-20T07:11:47;25.50;99.90
48488;DHT22;34289;48.572;13.378;2023-08-20T07:14:12;25.40;99.90
48488;DHT22;34289;48.572;13.378;2023-08-20T07:16:38;25.40;99.90
48488;DHT22;34289;48.572;13.378;2023-08-20T07:19:04;25.20;99.90
48488;DHT22;34289;48.572;13.378;2023-08-20T07:21:29;25.20;99.90
48488;DHT22;34289;48.572;13.378;2023-08-20T07:23:55;25.40;99.90
48488;DHT22;34289;48.572;13.378;2023-08-20T07:26:21;25.40;99.90
48488;DHT22;34289;48.572;13.378;2023-08-20T07:28:47;25.70;99.90
48488;DHT22;34289;48.572;13.378;2023-08-20T07:31:25;25.70;99.90
48488;DHT22;34289;48.572;13.378;2023-08-20T07:33:52;25.80;99.90
48488;DHT22;34289;48.572;13.378;2023-08-20T07:36:19;26.10;99.90
48488;DHT22;34289;48.572;13.378;2023-08-20T07:38:47;26.10;99.90
48488;DHT22;34289;48.572;13.378;2023-08-20T07:41:13;25.90;99.90
48488;DHT22;34289;48.572;13.378;2023-08-20T07:43:40;26.00;99.90
48488;DHT22;34289;48.572;13.378;2023-08-20T07:46:06;26.50;99.90
48488;DHT22;34289;48.572;13.378;2023-08-20T07:48:33;26.70;99.90
48488;DHT22;34289;48.572;13.378;2023-08-20T07:50:59;26.60;99.90
48488;DHT22;34289;48.572;13.378;2023-08-20T07:53:25;26.70;99.90
48488;DHT22;34289;48.572;13.378;2023-08-20T07:55:51;26.80;99.90
48488;DHT22;34289;48.572;13.378;2023-08-20T07:58:16;26.90;99.90
48488;DHT22;34289;48.572;13.378;2023-08-20T08:00:42;27.10;99.90
48488;DHT22;34289;48.572;13.378;2023-08-20T08:03:08;27.20;99.90
48488;DHT22;34289;48.572;13.378;2023-08-20T08:05:35;27.20;99.90
48488;DHT22;34289;48.572;13.378;2023-08-20T08:08:01;27.40;99.90
48488;DHT22;34289;48.572;13.378;2023-08-20T08:10:26;27.50;99.90
48488;DHT22;34289;48.572;13.378;2023-08-20T08:12:53;27.50;99.90
48488;DHT22;34289;48.572;13.378;2023-08-20T08:15:18;27.70;99.90
48488;DHT22;34289;48.572;13.378;2023-08-20T08:17:44;27.90;99.90
48488;DHT22;34289;48.572;13.378;2023-08-20T08:20:10;28.20;99.90
48488;DHT22;34289;48.572;13.378;2023-08-20T08:22:35;28.40;99.90
48488;DHT22;34289;48.572;13.378;2023-08-20T08:25:01;28.60;99.90
48488;DHT22;34289;48.572;13.378;2023-08-20T08:27:27;28.70;99.90
48488;DHT22;34289;48.572;13.378;2023-08-20T08:29:52;28.90;99.90
48488;DHT22;34289;48.572;13.378;2023-08-20T08:32:18;29.10;99.90
48488;DHT22;34289;48.572;13.378;2023-08-20T08:34:43;29.10;99.90
48488;DHT22;34289;48.572;13.378;2023-08-20T08:37:09;29.20;99.90
48488;DHT22;34289;48.572;13.378;2023-08-20T08:39:34;29.40;99.90
48488;DHT22;34289;48.572;13.378;2023-08-20T08:42:02;29.40;99.90
48488;DHT22;34289;48.572;13.378;2023-08-20T08:44:31;29.20;99.90
48488;DHT22;34289;48.572;13.378;2023-08-20T08:46:57;29.00;99.90
48488;DHT22;34289;48.572;13.378;2023-08-20T08:49:23;28.70;99.90
48488;DHT22;34289;48.572;13.378;2023-08-20T08:51:50;28.60;99.90
48488;DHT22;34289;48.572;13.378;2023-08-20T08:54:16;28.60;99.90
48488;DHT22;34289;48.572;13.378;2023-08-20T08:56:42;28.70;99.90
48488;DHT22;34289;48.572;13.378;2023-08-20T08:59:08;28.70;99.90
48488;DHT22;34289;48.572;13.378;2023-08-20T09:01:38;28.90;99.90
48488;DHT22;34289;48.572;13.378;2023-08-20T09:04:04;29.10;99.90
48488;DHT22;34289;48.572;13.378;2023-08-20T09:06:48;29.10;99.90
48488;DHT22;34289;48.572;13.378;2023-08-20T09:09:14;29.20;99.90
48488;DHT22;34289;48.572;13.378;2023-08-20T09:11:40;29.20;99.90
48488;DHT22;34289;48.572;13.378;2023-08-20T09:14:05;29.20;99.90
48488;DHT22;34289;48.572;13.378;2023-08-20T09:16:31;29.30;99.90
48488;DHT22;34289;48.572;13.378;2023-08-20T09:18:59;29.50;99.90
48488;DHT22;34289;48.572;13.378;2023-08-20T09:21:28;29.50;99.90
48488;DHT22;34289;48.572;13.378;2023-08-20T09:23:56;29.60;99.90
48488;DHT22;34289;48.572;13.378;2023-08-20T09:26:22;29.40;99.90
48488;DHT22;34289;48.572;13.378;2023-08-20T09:28:48;29.50;99.90
48488;DHT22;34289;48.572;13.378;2023-08-20T09:31:14;29.90;99.90
48488;DHT22;34289;48.572;13.378;2023-08-20T09:33:51;30.10;99.90
48488;DHT22;34289;48.572;13.378;2023-08-20T09:36:17;30.10;99.90
48488;DHT22;34289;48.572;13.378;2023-08-20T09:38:43;30.10;99.90
48488;DHT22;34289;48.572;13.378;2023-08-20T09:41:09;30.00;99.90
48488;DHT22;34289;48.572;13.378;2023-08-20T09:43:38;29.90;99.90
48488;DHT22;34289;48.572;13.378;2023-08-20T09:46:05;30.20;99.90
48488;DHT22;34289;48.572;13.378;2023-08-20T09:48:34;30.40;99.90
48488;DHT22;34289;48.572;13.378;2023-08-20T09:51:10;30.60;99.90
48488;DHT22;34289;48.572;13.378;2023-08-20T09:53:47;30.80;99.90
48488;DHT22;34289;48.572;13.378;2023-08-20T09:56:30;31.00;99.90
48488;DHT22;34289;48.572;13.378;2023-08-20T09:58:57;31.00;99.90
48488;DHT22;34289;48.572;13.378;2023-08-20T10:01:24;30.90;99.90
48488;DHT22;34289;48.572;13.378;2023-08-20T10:03:50;30.90;99.90
48488;DHT22;34289;48.572;13.378;2023-08-20T10:06:16;30.90;99.90
48488;DHT22;34289;48.572;13.378;2023-08-20T10:08:43;31.00;99.90
48488;DHT22;34289;48.572;13.378;2023-08-20T10:11:08;31.20;99.90
48488;DHT22;34289;48.572;13.378;2023-08-20T10:13:34;31.40;99.90
48488;DHT22;34289;48.572;13.378;2023-08-20T10:16:00;31.30;99.90
48488;DHT22;34289;48.572;13.378;2023-08-20T10:18:26;31.40;99.90
48488;DHT22;34289;48.572;13.378;2023-08-20T10:20:52;31.40;99.90
48488;DHT22;34289;48.572;13.378;2023-08-20T10:23:22;31.50;99.90
48488;DHT22;34289;48.572;13.378;2023-08-20T10:25:54;31.50;99.90
48488;DHT22;34289;48.572;13.378;2023-08-20T10:28:21;31.50;99.90
48488;DHT22;34289;48.572;13.378;2023-08-20T10:31:08;31.40;99.90
48488;DHT22;34289;48.572;13.378;2023-08-20T10:33:36;31.40;99.90
48488;DHT22;34289;48.572;13.378;2023-08-20T10:36:10;31.50;99.90
48488;DHT22;34289;48.572;13.378;2023-08-20T10:38:38;31.50;99.90
48488;DHT22;34289;48.572;13.378;2023-08-20T10:41:08;31.50;99.90
48488;DHT22;34289;48.572;13.378;2023-08-20T10:43:40;31.30;99.90
48488;DHT22;34289;48.572;13.378;2023-08-20T10:48:45;31.60;99.90
48488;DHT22;34289;48.572;13.378;2023-08-20T10:51:18;31.70;99.90
48488;DHT22;34289;48.572;13.378;2023-08-20T10:56:49;31.60;99.90
48488;DHT22;34289;48.572;13.378;2023-08-20T10:59:26;31.80;99.90
48488;DHT22;34289;48.572;13.378;2023-08-20T11:01:54;32.10;99.90
48488;DHT22;34289;48.572;13.378;2023-08-20T11:04:25;32.10;99.90
48488;DHT22;34289;48.572;13.378;2023-08-20T11:06:53;32.10;99.90
48488;DHT22;34289;48.572;13.378;2023-08-20T11:09:23;32.20;99.90
48488;DHT22;34289;48.572;13.378;2023-08-20T11:11:50;32.20;99.90
48488;DHT22;34289;48.572;13.378;2023-08-20T11:14:18;32.30;99.90
48488;DHT22;34289;48.572;13.378;2023-08-20T11:16:44;32.40;99.90
48488;DHT22;34289;48.572;13.378;2023-08-20T11:19:10;32.50;99.90
48488;DHT22;34289;48.572;13.378;2023-08-20T11:21:38;32.60;99.90
48488;DHT22;34289;48.572;13.378;2023-08-20T11:24:04;32.50;99.90
48488;DHT22;34289;48.572;13.378;2023-08-20T11:26:30;32.50;99.90
48488;DHT22;34289;48.572;13.378;2023-08-20T11:28:56;32.30;99.90
48488;DHT22;34289;48.572;13.378;2023-08-20T11:31:22;32.10;99.90
48488;DHT22;34289;48.572;13.378;2023-08-20T11:33:49;32.30;99.90
48488;DHT22;34289;48.572;13.378;2023-08-20T11:36:15;32.40;99.90
48488;DHT22;34289;48.572;13.378;2023-08-20T11:38:42;32.40;99.90
48488;DHT22;34289;48.572;13.378;2023-08-20T11:41:08;32.40;99.90
48488;DHT22;34289;48.572;13.378;2023-08-20T11:43:34;32.40;99.90
48488;DHT22;34289;48.572;13.378;2023-08-20T11:45:59;32.30;99.90
48488;DHT22;34289;48.572;13.378;2023-08-20T11:48:25;32.30;99.90
48488;DHT22;34289;48.572;13.378;2023-08-20T11:50:51;32.40;99.90
48488;DHT22;34289;48.572;13.378;2023-08-20T11:53:21;32.60;99.90
48488;DHT22;34289;48.572;13.378;2023-08-20T11:55:50;32.80;99.90
48488;DHT22;34289;48.572;13.378;2023-08-20T11:58:18;33.00;99.90
48488;DHT22;34289;48.572;13.378;2023-08-20T12:00:49;33.20;99.90
48488;DHT22;34289;48.572;13.378;2023-08-20T12:03:18;33.00;99.80
48488;DHT22;34289;48.572;13.378;2023-08-20T12:05:44;33.00;99.90
48488;DHT22;34289;48.572;13.378;2023-08-20T12:08:15;32.90;99.70
48488;DHT22;34289;48.572;13.378;2023-08-20T12:10:42;32.80;99.50
48488;DHT22;34289;48.572;13.378;2023-08-20T12:13:08;32.60;99.50
48488;DHT22;34289;48.572;13.378;2023-08-20T12:15:34;32.60;98.50
48488;DHT22;34289;48.572;13.378;2023-08-20T12:18:04;32.50;99.20
48488;DHT22;34289;48.572;13.378;2023-08-20T12:20:31;32.70;99.90
48488;DHT22;34289;48.572;13.378;2023-08-20T12:23:02;32.70;99.90
48488;DHT22;34289;48.572;13.378;2023-08-20T12:25:33;32.80;99.90
48488;DHT22;34289;48.572;13.378;2023-08-20T12:28:00;32.90;99.90
48488;DHT22;34289;48.572;13.378;2023-08-20T12:30:26;33.00;99.90
48488;DHT22;34289;48.572;13.378;2023-08-20T12:32:52;32.80;99.90
48488;DHT22;34289;48.572;13.378;2023-08-20T12:35:17;33.00;99.00
48488;DHT22;34289;48.572;13.378;2023-08-20T12:37:43;33.00;99.90
48488;DHT22;34289;48.572;13.378;2023-08-20T12:40:09;33.20;99.90
48488;DHT22;34289;48.572;13.378;2023-08-20T12:42:38;33.30;99.20
48488;DHT22;34289;48.572;13.378;2023-08-20T12:45:07;33.20;98.70
48488;DHT22;34289;48.572;13.378;2023-08-20T12:47:34;33.10;99.10
48488;DHT22;34289;48.572;13.378;2023-08-20T12:50:00;33.00;98.30
48488;DHT22;34289;48.572;13.378;2023-08-20T12:52:26;32.80;99.90
48488;DHT22;34289;48.572;13.378;2023-08-20T12:54:52;32.80;99.00
48488;DHT22;34289;48.572;13.378;2023-08-20T12:57:17;32.80;99.60
48488;DHT22;34289;48.572;13.378;2023-08-20T12:59:43;32.80;98.20
48488;DHT22;34289;48.572;13.378;2023-08-20T13:02:10;32.90;99.00
48488;DHT22;34289;48.572;13.378;2023-08-20T13:04:36;33.00;99.00
48488;DHT22;34289;48.572;13.378;2023-08-20T13:07:02;32.90;98.30
48488;DHT22;34289;48.572;13.378;2023-08-20T13:09:28;32.80;99.90
48488;DHT22;34289;48.572;13.378;2023-08-20T13:11:56;32.70;98.60
48488;DHT22;34289;48.572;13.378;2023-08-20T13:14:22;32.60;98.40
48488;DHT22;34289;48.572;13.378;2023-08-20T13:16:49;32.60;99.90
48488;DHT22;34289;48.572;13.378;2023-08-20T13:19:15;32.60;98.80
48488;DHT22;34289;48.572;13.378;2023-08-20T13:21:40;32.70;99.40
48488;DHT22;34289;48.572;13.378;2023-08-20T13:24:06;32.70;99.10
48488;DHT22;34289;48.572;13.378;2023-08-20T13:26:32;32.80;99.80
48488;DHT22;34289;48.572;13.378;2023-08-20T13:28:57;32.90;99.90
48488;DHT22;34289;48.572;13.378;2023-08-20T13:31:23;32.80;98.70
48488;DHT22;34289;48.572;13.378;2023-08-20T13:33:49;32.70;99.60
48488;DHT22;34289;48.572;13.378;2023-08-20T13:36:15;32.80;99.90
48488;DHT22;34289;48.572;13.378;2023-08-20T13:38:41;32.80;98.40
48488;DHT22;34289;48.572;13.378;2023-08-20T13:41:07;32.80;99.90
48488;DHT22;34289;48.572;13.378;2023-08-20T13:43:32;32.70;98.80
48488;DHT22;34289;48.572;13.378;2023-08-20T13:45:58;32.70;99.10
48488;DHT22;34289;48.572;13.378;2023-08-20T13:48:24;32.70;97.90
48488;DHT22;34289;48.572;13.378;2023-08-20T13:50:49;32.70;98.00
48488;DHT22;34289;48.572;13.378;2023-08-20T13:53:15;32.70;97.30
48488;DHT22;34289;48.572;13.378;2023-08-20T13:55:41;32.60;98.30
48488;DHT22;34289;48.572;13.378;2023-08-20T13:58:06;32.60;96.80
48488;DHT22;34289;48.572;13.378;2023-08-20T14:00:32;32.60;96.50
48488;DHT22;34289;48.572;13.378;2023-08-20T14:02:58;32.40;99.90
48488;DHT22;34289;48.572;13.378;2023-08-20T14:05:24;32.60;99.20
48488;DHT22;34289;48.572;13.378;2023-08-20T14:07:50;32.70;97.80
48488;DHT22;34289;48.572;13.378;2023-08-20T14:10:15;32.70;98.70
48488;DHT22;34289;48.572;13.378;2023-08-20T14:12:41;32.70;97.80
48488;DHT22;34289;48.572;13.378;2023-08-20T14:15:08;32.60;98.80
48488;DHT22;34289;48.572;13.378;2023-08-20T14:17:33;32.60;98.30
48488;DHT22;34289;48.572;13.378;2023-08-20T14:19:59;32.60;97.10
48488;DHT22;34289;48.572;13.378;2023-08-20T14:22:25;32.60;98.70
48488;DHT22;34289;48.572;13.378;2023-08-20T14:24:51;32.60;98.50
48488;DHT22;34289;48.572;13.378;2023-08-20T14:27:17;32.60;97.90
48488;DHT22;34289;48.572;13.378;2023-08-20T14:29:42;32.70;97.90
48488;DHT22;34289;48.572;13.378;2023-08-20T14:32:08;32.60;97.90
48488;DHT22;34289;48.572;13.378;2023-08-20T14:34:34;32.60;97.70
48488;DHT22;34289;48.572;13.378;2023-08-20T14:36:59;32.50;97.70
48488;DHT22;34289;48.572;13.378;2023-08-20T14:39:25;32.40;98.20
48488;DHT22;34289;48.572;13.378;2023-08-20T14:41:50;32.50;97.70
48488;DHT22;34289;48.572;13.378;2023-08-20T14:44:16;32.50;96.30
48488;DHT22;34289;48.572;13.378;2023-08-20T14:46:42;32.40;97.00
48488;DHT22;34289;48.572;13.378;2023-08-20T14:49:07;32.20;97.20
48488;DHT22;34289;48.572;13.378;2023-08-20T14:51:34;32.20;98.50
48488;DHT22;34289;48.572;13.378;2023-08-20T14:54:00;32.20;97.70
48488;DHT22;34289;48.572;13.378;2023-08-20T14:56:25;32.40;98.90
48488;DHT22;34289;48.572;13.378;2023-08-20T14:58:51;32.40;98.70
48488;DHT22;34289;48.572;13.378;2023-08-20T15:01:16;32.40;97.00
48488;DHT22;34289;48.572;13.378;2023-08-20T15:03:43;32.40;96.80
48488;DHT22;34289;48.572;13.378;2023-08-20T15:06:08;32.40;96.50
48488;DHT22;34289;48.572;13.378;2023-08-20T15:08:34;32.50;97.20
48488;DHT22;34289;48.572;13.378;2023-08-20T15:11:00;32.60;99.90
48488;DHT22;34289;48.572;13.378;2023-08-20T15:13:29;32.40;98.10
48488;DHT22;34289;48.572;13.378;2023-08-20T15:15:54;32.30;97.90
48488;DHT22;34289;48.572;13.378;2023-08-20T15:18:20;32.20;97.40
48488;DHT22;34289;48.572;13.378;2023-08-20T15:20:56;32.30;97.60
48488;DHT22;34289;48.572;13.378;2023-08-20T15:23:27;32.20;96.60
48488;DHT22;34289;48.572;13.378;2023-08-20T15:25:54;32.20;97.30
48488;DHT22;34289;48.572;13.378;2023-08-20T15:28:23;32.20;97.10
48488;DHT22;34289;48.572;13.378;2023-08-20T15:30:53;32.20;97.20
48488;DHT22;34289;48.572;13.378;2023-08-20T15:33:19;32.20;97.20
48488;DHT22;34289;48.572;13.378;2023-08-20T15:35:45;32.20;96.90
48488;DHT22;34289;48.572;13.378;2023-08-20T15:38:11;32.20;98.70
48488;DHT22;34289;48.572;13.378;2023-08-20T15:40:40;32.10;97.50
48488;DHT22;34289;48.572;13.378;2023-08-20T15:43:05;32.00;98.10
48488;DHT22;34289;48.572;13.378;2023-08-20T15:45:31;31.90;97.80
48488;DHT22;34289;48.572;13.378;2023-08-20T15:47:57;31.70;97.70
48488;DHT22;34289;48.572;13.378;2023-08-20T15:50:23;31.60;98.00
48488;DHT22;34289;48.572;13.378;2023-08-20T15:52:49;31.70;99.90
48488;DHT22;34289;48.572;13.378;2023-08-20T15:55:14;31.60;97.60
48488;DHT22;34289;48.572;13.378;2023-08-20T15:57:40;31.60;97.60
48488;DHT22;34289;48.572;13.378;2023-08-20T16:00:06;31.60;97.80
48488;DHT22;34289;48.572;13.378;2023-08-20T16:02:41;31.60;99.20
48488;DHT22;34289;48.572;13.378;2023-08-20T16:05:07;31.50;99.50
48488;DHT22;34289;48.572;13.378;2023-08-20T16:07:33;31.40;98.90
48488;DHT22;34289;48.572;13.378;2023-08-20T16:09:59;31.40;98.40
48488;DHT22;34289;48.572;13.378;2023-08-20T16:12:26;31.30;98.70
48488;DHT22;34289;48.572;13.378;2023-08-20T16:14:51;31.30;98.50
48488;DHT22;34289;48.572;13.378;2023-08-20T16:17:17;31.30;98.90
48488;DHT22;34289;48.572;13.378;2023-08-20T16:19:43;31.30;99.20
48488;DHT22;34289;48.572;13.378;2023-08-20T16:22:09;31.20;99.70
48488;DHT22;34289;48.572;13.378;2023-08-20T16:24:35;31.20;98.70
48488;DHT22;34289;48.572;13.378;2023-08-20T16:27:01;31.20;99.80
48488;DHT22;34289;48.572;13.378;2023-08-20T16:29:28;31.30;99.90
48488;DHT22;34289;48.572;13.378;2023-08-20T16:31:54;31.30;99.20
48488;DHT22;34289;48.572;13.378;2023-08-20T16:34:20;31.10;99.90
48488;DHT22;34289;48.572;13.378;2023-08-20T16:36:46;31.00;99.90
48488;DHT22;34289;48.572;13.378;2023-08-20T16:39:11;30.80;99.90
48488;DHT22;34289;48.572;13.378;2023-08-20T16:41:38;30.60;99.90
48488;DHT22;34289;48.572;13.378;2023-08-20T16:44:03;30.50;99.90
48488;DHT22;34289;48.572;13.378;2023-08-20T16:46:29;30.40;99.90
48488;DHT22;34289;48.572;13.378;2023-08-20T16:48:55;30.20;99.90
48488;DHT22;34289;48.572;13.378;2023-08-20T16:51:20;29.90;99.90
48488;DHT22;34289;48.572;13.378;2023-08-20T16:53:46;29.70;99.90
48488;DHT22;34289;48.572;13.378;2023-08-20T16:56:12;29.60;99.90
48488;DHT22;34289;48.572;13.378;2023-08-20T16:58:37;29.40;99.90
48488;DHT22;34289;48.572;13.378;2023-08-20T17:01:03;29.30;99.90
48488;DHT22;34289;48.572;13.378;2023-08-20T17:03:30;29.10;99.90
48488;DHT22;34289;48.572;13.378;2023-08-20T17:06:02;29.00;99.90
48488;DHT22;34289;48.572;13.378;2023-08-20T17:08:29;28.90;99.90
48488;DHT22;34289;48.572;13.378;2023-08-20T17:11:09;29.00;99.90
48488;DHT22;34289;48.572;13.378;2023-08-20T17:13:35;28.90;99.90
48488;DHT22;34289;48.572;13.378;2023-08-20T17:16:01;28.90;99.90
48488;DHT22;34289;48.572;13.378;2023-08-20T17:18:28;28.90;99.90
48488;DHT22;34289;48.572;13.378;2023-08-20T17:20:58;28.90;99.90
48488;DHT22;34289;48.572;13.378;2023-08-20T17:23:25;28.80;99.90
48488;DHT22;34289;48.572;13.378;2023-08-20T17:25:57;28.60;99.90
48488;DHT22;34289;48.572;13.378;2023-08-20T17:28:23;28.30;99.90
48488;DHT22;34289;48.572;13.378;2023-08-20T17:30:49;28.10;99.90
48488;DHT22;34289;48.572;13.378;2023-08-20T17:33:16;27.90;99.90
48488;DHT22;34289;48.572;13.378;2023-08-20T17:35:42;28.40;99.90
48488;DHT22;34289;48.572;13.378;2023-08-20T17:38:09;27.50;99.90
48488;DHT22;34289;48.572;13.378;2023-08-20T17:40:36;27.40;99.90
48488;DHT22;34289;48.572;13.378;2023-08-20T17:43:01;27.50;99.90
48488;DHT22;34289;48.572;13.378;2023-08-20T17:45:27;27.10;99.90
48488;DHT22;34289;48.572;13.378;2023-08-20T17:47:53;27.10;99.90
48488;DHT22;34289;48.572;13.378;2023-08-20T17:50:18;27.00;99.90
48488;DHT22;34289;48.572;13.378;2023-08-20T17:52:46;26.50;99.90
48488;DHT22;34289;48.572;13.378;2023-08-20T17:55:11;26.90;99.90
48488;DHT22;34289;48.572;13.378;2023-08-20T17:57:37;26.90;99.90
48488;DHT22;34289;48.572;13.378;2023-08-20T18:00:07;26.70;99.90
48488;DHT22;34289;48.572;13.378;2023-08-20T18:02:34;26.60;99.90
48488;DHT22;34289;48.572;13.378;2023-08-20T18:05:00;26.50;99.90
48488;DHT22;34289;48.572;13.378;2023-08-20T18:07:26;26.50;99.90
48488;DHT22;34289;48.572;13.378;2023-08-20T18:09:51;26.30;99.90
48488;DHT22;34289;48.572;13.378;2023-08-20T18:12:20;26.30;99.90
48488;DHT22;34289;48.572;13.378;2023-08-20T18:14:46;26.20;99.90
48488;DHT22;34289;48.572;13.378;2023-08-20T18:17:11;26.10;99.90
48488;DHT22;34289;48.572;13.378;2023-08-20T18:19:37;25.90;99.90
48488;DHT22;34289;48.572;13.378;2023-08-20T18:22:04;25.80;99.90
48488;DHT22;34289;48.572;13.378;2023-08-20T18:24:30;25.60;99.90
48488;DHT22;34289;48.572;13.378;2023-08-20T18:26:55;25.30;99.90
48488;DHT22;34289;48.572;13.378;2023-08-20T18:29:21;25.10;99.90
48488;DHT22;34289;48.572;13.378;2023-08-20T18:31:46;24.80;99.90
48488;DHT22;34289;48.572;13.378;2023-08-20T18:34:16;24.60;99.90
48488;DHT22;34289;48.572;13.378;2023-08-20T18:36:42;24.80;99.90
48488;DHT22;34289;48.572;13.378;2023-08-20T18:39:08;24.80;99.90